sensor_id;sensor_type;location;lat;lon;timestamp;pressure;altitude;pressure_sealevel;temperature;humidity
55675;BME280;41562;44.330;23.802;2023-07-13T00:02:05;100083.69;;;24.93;100.00
55675;BME280;41562;44.330;23.802;2023-07-13T00:04:36;100081.09;;;25.03;100.00
55675;BME280;41562;44.330;23.802;2023-07-13T00:07:09;100076.25;;;24.93;100.00
55675;BME280;41562;44.330;23.802;2023-07-13T00:09:41;100079.25;;;24.84;100.00
55675;BME280;41562;44.330;23.802;2023-07-13T00:12:41;100081.91;;;24.77;100.00
55675;BME280;41562;44.330;23.802;2023-07-13T00:15:16;100081.50;;;24.79;100.00
55675;BME280;41562;44.330;23.802;2023-07-13T00:17:54;100081.50;;;24.79;100.00
55675;BME280;41562;44.330;23.802;2023-07-13T00:20:28;100086.22;;;24.78;100.00
55675;BME280;41562;44.330;23.802;2023-07-13T00:22:56;100085.00;;;24.76;100.00
55675;BME280;41562;44.330;23.802;2023-07-13T00:25:27;100067.78;;;24.75;100.00
55675;BME280;41562;44.330;23.802;2023-07-13T00:27:57;100082.28;;;24.79;100.00
55675;BME280;41562;44.330;23.802;2023-07-13T00:30:27;100076.00;;;24.75;100.00
55675;BME280;41562;44.330;23.802;2023-07-13T00:32:58;100069.28;;;24.69;100.00
55675;BME280;41562;44.330;23.802;2023-07-13T00:35:46;100066.09;;;24.67;100.00
55675;BME280;41562;44.330;23.802;2023-07-13T00:38:17;100065.75;;;24.69;100.00
55675;BME280;41562;44.330;23.802;2023-07-13T00:40:47;100071.97;;;24.66;100.00
55675;BME280;41562;44.330;23.802;2023-07-13T00:43:20;100068.06;;;24.67;100.00
55675;BME280;41562;44.330;23.802;2023-07-13T00:48:26;100077.34;;;24.59;100.00
55675;BME280;41562;44.330;23.802;2023-07-13T00:50:59;100085.69;;;24.43;100.00
55675;BME280;41562;44.330;23.802;2023-07-13T00:53:34;100086.91;;;24.46;100.00
55675;BME280;41562;44.330;23.802;2023-07-13T00:56:03;100083.31;;;24.41;100.00
55675;BME280;41562;44.330;23.802;2023-07-13T00:58:35;100082.78;;;24.32;100.00
55675;BME280;41562;44.330;23.802;2023-07-13T01:01:08;100075.31;;;24.29;100.00
55675;BME280;41562;44.330;23.802;2023-07-13T01:03:41;100081.22;;;24.31;100.00
55675;BME280;41562;44.330;23.802;2023-07-13T01:06:11;100079.16;;;24.25;100.00
55675;BME280;41562;44.330;23.802;2023-07-13T01:08:40;100072.25;;;24.34;100.00
55675;BME280;41562;44.330;23.802;2023-07-13T01:11:10;100078.59;;;24.38;100.00
55675;BME280;41562;44.330;23.802;2023-07-13T01:13:41;100073.00;;;24.31;100.00
55675;BME280;41562;44.330;23.802;2023-07-13T01:16:27;100072.53;;;24.26;100.00
55675;BME280;41562;44.330;23.802;2023-07-13T01:18:57;100080.78;;;24.29;100.00
55675;BME280;41562;44.330;23.802;2023-07-13T01:21:26;100080.25;;;24.20;100.00
55675;BME280;41562;44.330;23.802;2023-07-13T01:23:58;100079.00;;;24.18;100.00
55675;BME280;41562;44.330;23.802;2023-07-13T01:26:29;100086.00;;;24.15;100.00
55675;BME280;41562;44.330;23.802;2023-07-13T01:28:59;100072.06;;;24.20;100.00
55675;BME280;41562;44.330;23.802;2023-07-13T01:31:26;100074.31;;;24.18;100.00
55675;BME280;41562;44.330;23.802;2023-07-13T01:33:59;100074.22;;;24.11;100.00
55675;BME280;41562;44.330;23.802;2023-07-13T01:36:33;100074.31;;;24.18;100.00
55675;BME280;41562;44.330;23.802;2023-07-13T01:39:04;100069.63;;;24.15;100.00
55675;BME280;41562;44.330;23.802;2023-07-13T01:41:36;100070.31;;;24.12;100.00
55675;BME280;41562;44.330;23.802;2023-07-13T01:44:07;100070.53;;;24.00;100.00
55675;BME280;41562;44.330;23.802;2023-07-13T01:46:37;100070.31;;;24.12;100.00
55675;BME280;41562;44.330;23.802;2023-07-13T01:49:12;100077.13;;;23.99;100.00
55675;BME280;41562;44.330;23.802;2023-07-13T01:51:45;100077.00;;;24.64;100.00
55675;BME280;41562;44.330;23.802;2023-07-13T01:54:12;100076.13;;;24.86;100.00
55675;BME280;41562;44.330;23.802;2023-07-13T01:56:46;100069.22;;;24.92;100.00
55675;BME280;41562;44.330;23.802;2023-07-13T01:59:22;100063.88;;;25.03;100.00
55675;BME280;41562;44.330;23.802;2023-07-13T02:01:53;100068.06;;;24.93;100.00
55675;BME280;41562;44.330;23.802;2023-07-13T02:04:28;100070.09;;;25.00;100.00
55675;BME280;41562;44.330;23.802;2023-07-13T02:06:58;100062.19;;;25.24;100.00
55675;BME280;41562;44.330;23.802;2023-07-13T02:09:25;100055.47;;;25.55;100.00
55675;BME280;41562;44.330;23.802;2023-07-13T02:12:02;100063.47;;;25.34;100.00
55675;BME280;41562;44.330;23.802;2023-07-13T02:14:30;100057.16;;;25.30;100.00
55675;BME280;41562;44.330;23.802;2023-07-13T02:17:07;100066.28;;;25.08;100.00
55675;BME280;41562;44.330;23.802;2023-07-13T02:19:38;100057.72;;;25.09;100.00
55675;BME280;41562;44.330;23.802;2023-07-13T02:22:06;100062.22;;;24.95;100.00
55675;BME280;41562;44.330;23.802;2023-07-13T02:24:42;100064.28;;;25.05;100.00
55675;BME280;41562;44.330;23.802;2023-07-13T02:27:13;100076.03;;;24.79;100.00
55675;BME280;41562;44.330;23.802;2023-07-13T02:29:46;100073.13;;;24.65;100.00
55675;BME280;41562;44.330;23.802;2023-07-13T02:32:21;100081.31;;;24.65;100.00
55675;BME280;41562;44.330;23.802;2023-07-13T02:34:55;100085.72;;;24.73;100.00
55675;BME280;41562;44.330;23.802;2023-07-13T02:37:28;100088.53;;;24.76;100.00
55675;BME280;41562;44.330;23.802;2023-07-13T02:39:59;100091.63;;;24.75;100.00
55675;BME280;41562;44.330;23.802;2023-07-13T02:42:29;100089.09;;;24.63;100.00
55675;BME280;41562;44.330;23.802;2023-07-13T02:44:57;100093.19;;;25.02;100.00
55675;BME280;41562;44.330;23.802;2023-07-13T02:47:28;100078.31;;;25.33;100.00
55675;BME280;41562;44.330;23.802;2023-07-13T02:50:02;100082.97;;;24.99;100.00
55675;BME280;41562;44.330;23.802;2023-07-13T02:52:34;100080.34;;;24.80;100.00
55675;BME280;41562;44.330;23.802;2023-07-13T02:55:01;100088.97;;;24.82;100.00
55675;BME280;41562;44.330;23.802;2023-07-13T02:57:29;100082.50;;;24.90;100.00
55675;BME280;41562;44.330;23.802;2023-07-13T03:00:02;100086.69;;;24.84;100.00
55675;BME280;41562;44.330;23.802;2023-07-13T03:02:30;100092.63;;;24.90;100.00
55675;BME280;41562;44.330;23.802;2023-07-13T03:05:04;100088.22;;;24.85;100.00
55675;BME280;41562;44.330;23.802;2023-07-13T03:07:34;100095.38;;;24.90;100.00
55675;BME280;41562;44.330;23.802;2023-07-13T03:10:06;100086.41;;;24.93;100.00
55675;BME280;41562;44.330;23.802;2023-07-13T03:12:35;100091.84;;;24.89;100.00
55675;BME280;41562;44.330;23.802;2023-07-13T03:15:09;100087.66;;;24.72;100.00
55675;BME280;41562;44.330;23.802;2023-07-13T03:17:43;100095.56;;;24.77;100.00
55675;BME280;41562;44.330;23.802;2023-07-13T03:20:13;100089.94;;;24.67;100.00
55675;BME280;41562;44.330;23.802;2023-07-13T03:22:53;100079.47;;;24.72;100.00
55675;BME280;41562;44.330;23.802;2023-07-13T03:25:21;100091.09;;;24.92;100.00
55675;BME280;41562;44.330;23.802;2023-07-13T03:28:01;100082.34;;;24.83;100.00
55675;BME280;41562;44.330;23.802;2023-07-13T03:30:31;100083.59;;;24.59;100.00
55675;BME280;41562;44.330;23.802;2023-07-13T03:33:02;100077.81;;;24.64;100.00
55675;BME280;41562;44.330;23.802;2023-07-13T03:35:43;100082.16;;;24.69;100.00
55675;BME280;41562;44.330;23.802;2023-07-13T03:38:16;100074.00;;;24.72;100.00
55675;BME280;41562;44.330;23.802;2023-07-13T03:40:49;100071.31;;;24.76;100.00
55675;BME280;41562;44.330;23.802;2023-07-13T03:43:23;100079.28;;;24.88;100.00
55675;BME280;41562;44.330;23.802;2023-07-13T03:46:09;100084.56;;;24.74;100.00
55675;BME280;41562;44.330;23.802;2023-07-13T03:48:41;100088.63;;;24.83;100.00
55675;BME280;41562;44.330;23.802;2023-07-13T03:51:21;100081.44;;;24.72;100.00
55675;BME280;41562;44.330;23.802;2023-07-13T03:53:58;100084.56;;;24.74;100.00
55675;BME280;41562;44.330;23.802;2023-07-13T03:56:34;100082.50;;;24.67;100.00
55675;BME280;41562;44.330;23.802;2023-07-13T03:59:07;100085.53;;;24.59;100.00
55675;BME280;41562;44.330;23.802;2023-07-13T04:01:44;100087.63;;;24.69;100.00
55675;BME280;41562;44.330;23.802;2023-07-13T04:04:14;100094.47;;;24.56;100.00
55675;BME280;41562;44.330;23.802;2023-07-13T04:06:43;100096.84;;;24.57;100.00
55675;BME280;41562;44.330;23.802;2023-07-13T04:09:14;100095.41;;;24.67;100.00
55675;BME280;41562;44.330;23.802;2023-07-13T04:11:47;100097.41;;;24.70;100.00
55675;BME280;41562;44.330;23.802;2023-07-13T04:14:18;100102.31;;;25.13;100.00
55675;BME280;41562;44.330;23.802;2023-07-13T04:16:53;100094.84;;;25.10;100.00
55675;BME280;41562;44.330;23.802;2023-07-13T04:19:27;100105.00;;;25.40;100.00
55675;BME280;41562;44.330;23.802;2023-07-13T04:21:54;100101.03;;;25.37;100.00
55675;BME280;41562;44.330;23.802;2023-07-13T04:24:24;100109.56;;;25.29;100.00
55675;BME280;41562;44.330;23.802;2023-07-13T04:27:01;100105.34;;;25.35;100.00
55675;BME280;41562;44.330;23.802;2023-07-13T04:29:34;100116.53;;;25.22;100.00
55675;BME280;41562;44.330;23.802;2023-07-13T04:32:06;100110.63;;;25.20;100.00
55675;BME280;41562;44.330;23.802;2023-07-13T04:34:50;100106.13;;;25.05;100.00
55675;BME280;41562;44.330;23.802;2023-07-13T04:37:26;100105.22;;;24.98;100.00
55675;BME280;41562;44.330;23.802;2023-07-13T04:40:00;100107.94;;;24.94;100.00
55675;BME280;41562;44.330;23.802;2023-07-13T04:42:35;100116.19;;;24.98;100.00
55675;BME280;41562;44.330;23.802;2023-07-13T04:45:02;100123.22;;;24.99;100.00
55675;BME280;41562;44.330;23.802;2023-07-13T04:47:38;100123.78;;;24.85;100.00
55675;BME280;41562;44.330;23.802;2023-07-13T04:50:08;100120.78;;;24.90;100.00
55675;BME280;41562;44.330;23.802;2023-07-13T04:52:47;100128.44;;;25.07;100.00
55675;BME280;41562;44.330;23.802;2023-07-13T04:55:22;100130.66;;;24.98;100.00
55675;BME280;41562;44.330;23.802;2023-07-13T04:57:55;100131.50;;;25.02;100.00
55675;BME280;41562;44.330;23.802;2023-07-13T05:00:26;100131.69;;;25.16;100.00
55675;BME280;41562;44.330;23.802;2023-07-13T05:03:02;100139.63;;;24.95;100.00
55675;BME280;41562;44.330;23.802;2023-07-13T05:05:42;100133.22;;;25.14;100.00
55675;BME280;41562;44.330;23.802;2023-07-13T05:08:09;100137.63;;;25.22;100.00
55675;BME280;41562;44.330;23.802;2023-07-13T05:10:59;100133.91;;;25.07;100.00
55675;BME280;41562;44.330;23.802;2023-07-13T05:13:32;100128.44;;;25.07;100.00
55675;BME280;41562;44.330;23.802;2023-07-13T05:16:08;100127.88;;;24.95;100.00
55675;BME280;41562;44.330;23.802;2023-07-13T05:18:36;100137.44;;;25.08;100.00
55675;BME280;41562;44.330;23.802;2023-07-13T05:21:14;100140.31;;;25.18;100.00
55675;BME280;41562;44.330;23.802;2023-07-13T05:23:46;100133.19;;;25.44;100.00
55675;BME280;41562;44.330;23.802;2023-07-13T05:26:17;100133.09;;;25.37;100.00
55675;BME280;41562;44.330;23.802;2023-07-13T05:28:51;100142.47;;;25.36;100.00
55675;BME280;41562;44.330;23.802;2023-07-13T05:31:23;100140.16;;;25.38;100.00
55675;BME280;41562;44.330;23.802;2023-07-13T05:33:53;100139.97;;;25.23;100.00
55675;BME280;41562;44.330;23.802;2023-07-13T05:36:24;100136.84;;;25.21;100.00
55675;BME280;41562;44.330;23.802;2023-07-13T05:38:54;100149.44;;;25.30;100.00
55675;BME280;41562;44.330;23.802;2023-07-13T05:41:28;100151.97;;;25.42;100.00
55675;BME280;41562;44.330;23.802;2023-07-13T05:43:56;100144.91;;;25.41;100.00
55675;BME280;41562;44.330;23.802;2023-07-13T05:46:30;100149.13;;;25.65;100.00
55675;BME280;41562;44.330;23.802;2023-07-13T05:49:00;100147.72;;;25.81;100.00
55675;BME280;41562;44.330;23.802;2023-07-13T05:51:31;100152.19;;;25.96;100.00
55675;BME280;41562;44.330;23.802;2023-07-13T05:54:02;100147.09;;;25.95;100.00
55675;BME280;41562;44.330;23.802;2023-07-13T05:56:32;100158.19;;;26.09;100.00
55675;BME280;41562;44.330;23.802;2023-07-13T05:59:09;100153.06;;;26.04;100.00
55675;BME280;41562;44.330;23.802;2023-07-13T06:01:39;100138.56;;;26.03;100.00
55675;BME280;41562;44.330;23.802;2023-07-13T06:04:18;100142.56;;;26.13;100.00
55675;BME280;41562;44.330;23.802;2023-07-13T06:06:45;100143.41;;;26.17;100.00
55675;BME280;41562;44.330;23.802;2023-07-13T06:09:12;100139.59;;;26.29;100.00
55675;BME280;41562;44.330;23.802;2023-07-13T06:11:48;100148.28;;;26.38;99.92
55675;BME280;41562;44.330;23.802;2023-07-13T06:14:23;100149.22;;;26.56;100.00
55675;BME280;41562;44.330;23.802;2023-07-13T06:16:56;100150.53;;;26.73;100.00
55675;BME280;41562;44.330;23.802;2023-07-13T06:19:26;100142.34;;;26.83;100.00
55675;BME280;41562;44.330;23.802;2023-07-13T06:22:08;100144.00;;;26.92;98.57
55675;BME280;41562;44.330;23.802;2023-07-13T06:24:38;100129.16;;;27.07;97.45
55675;BME280;41562;44.330;23.802;2023-07-13T06:27:12;100140.19;;;27.14;98.83
55675;BME280;41562;44.330;23.802;2023-07-13T06:29:47;100131.63;;;27.26;98.33
55675;BME280;41562;44.330;23.802;2023-07-13T06:32:21;100132.19;;;27.67;98.80
55675;BME280;41562;44.330;23.802;2023-07-13T06:34:52;100124.00;;;27.92;100.00
55675;BME280;41562;44.330;23.802;2023-07-13T06:37:22;100129.53;;;28.13;95.37
55675;BME280;41562;44.330;23.802;2023-07-13T06:40:01;100133.84;;;28.21;95.05
55675;BME280;41562;44.330;23.802;2023-07-13T06:42:33;100132.69;;;28.36;92.84
55675;BME280;41562;44.330;23.802;2023-07-13T06:45:07;100138.13;;;28.08;91.56
55675;BME280;41562;44.330;23.802;2023-07-13T06:47:46;100132.69;;;28.15;92.19
55675;BME280;41562;44.330;23.802;2023-07-13T06:50:14;100128.75;;;28.45;89.98
55675;BME280;41562;44.330;23.802;2023-07-13T07:19:43;100132.16;;;29.34;81.46
55675;BME280;41562;44.330;23.802;2023-07-13T07:22:13;100137.94;;;29.57;81.25
55675;BME280;41562;44.330;23.802;2023-07-13T07:24:43;100136.34;;;29.56;80.25
55675;BME280;41562;44.330;23.802;2023-07-13T07:27:11;100134.72;;;29.66;81.24
55675;BME280;41562;44.330;23.802;2023-07-13T07:29:41;100135.56;;;29.59;80.55
55675;BME280;41562;44.330;23.802;2023-07-13T07:32:16;100140.84;;;30.02;79.58
55675;BME280;41562;44.330;23.802;2023-07-13T07:35:07;100143.41;;;30.23;77.00
55675;BME280;41562;44.330;23.802;2023-07-13T07:37:34;100148.78;;;30.44;78.24
55675;BME280;41562;44.330;23.802;2023-07-13T07:40:11;100164.84;;;30.60;77.84
55675;BME280;41562;44.330;23.802;2023-07-13T07:42:42;100163.19;;;30.66;77.91
55675;BME280;41562;44.330;23.802;2023-07-13T07:45:20;100161.75;;;30.51;77.24
55675;BME280;41562;44.330;23.802;2023-07-13T07:47:47;100162.94;;;30.53;77.14
55675;BME280;41562;44.330;23.802;2023-07-13T07:54:24;100147.25;;;30.81;75.25
55675;BME280;41562;44.330;23.802;2023-07-13T08:01:01;100148.56;;;31.10;75.74
55675;BME280;41562;44.330;23.802;2023-07-13T08:03:39;100157.50;;;31.21;75.50
55675;BME280;41562;44.330;23.802;2023-07-13T08:06:11;100157.75;;;31.34;75.70
55675;BME280;41562;44.330;23.802;2023-07-13T08:09:22;100159.56;;;31.47;74.38
55675;BME280;41562;44.330;23.802;2023-07-13T08:12:30;100155.13;;;31.53;75.35
55675;BME280;41562;44.330;23.802;2023-07-13T08:15:20;100157.38;;;31.66;75.41
55675;BME280;41562;44.330;23.802;2023-07-13T08:17:48;100146.53;;;31.78;75.03
55675;BME280;41562;44.330;23.802;2023-07-13T08:20:16;100153.47;;;31.90;74.95
55675;BME280;41562;44.330;23.802;2023-07-13T08:22:44;100142.81;;;31.88;74.28
55675;BME280;41562;44.330;23.802;2023-07-13T08:25:11;100142.59;;;32.03;74.54
55675;BME280;41562;44.330;23.802;2023-07-13T08:27:39;100139.31;;;32.11;74.48
55675;BME280;41562;44.330;23.802;2023-07-13T08:33:16;100145.63;;;32.12;73.28
55675;BME280;41562;44.330;23.802;2023-07-13T08:35:48;100143.69;;;32.09;71.46
55675;BME280;41562;44.330;23.802;2023-07-13T08:38:23;100159.25;;;32.26;71.69
55675;BME280;41562;44.330;23.802;2023-07-13T08:44:24;100162.47;;;32.48;72.94
55675;BME280;41562;44.330;23.802;2023-07-13T08:46:55;100172.69;;;32.51;72.60
55675;BME280;41562;44.330;23.802;2023-07-13T08:49:49;100174.13;;;32.59;72.22
55675;BME280;41562;44.330;23.802;2023-07-13T08:52:20;100172.44;;;32.65;71.38
55675;BME280;41562;44.330;23.802;2023-07-13T08:55:01;100174.00;;;32.66;71.78
55675;BME280;41562;44.330;23.802;2023-07-13T09:45:09;100084.38;;;33.55;62.84
55675;BME280;41562;44.330;23.802;2023-07-13T10:01:06;100021.97;;;33.63;59.86
55675;BME280;41562;44.330;23.802;2023-07-13T10:07:22;100032.41;;;33.75;60.57
55675;BME280;41562;44.330;23.802;2023-07-13T10:09:57;100029.38;;;33.86;59.52
55675;BME280;41562;44.330;23.802;2023-07-13T10:12:25;100021.66;;;33.94;59.22
55675;BME280;41562;44.330;23.802;2023-07-13T10:14:56;100016.19;;;33.74;56.89
55675;BME280;41562;44.330;23.802;2023-07-13T10:17:43;100013.13;;;33.84;59.48
55675;BME280;41562;44.330;23.802;2023-07-13T10:20:11;99997.00;;;33.96;57.66
55675;BME280;41562;44.330;23.802;2023-07-13T10:25:59;100004.19;;;34.09;54.60
55675;BME280;41562;44.330;23.802;2023-07-13T10:28:47;100001.50;;;34.06;53.49
55675;BME280;41562;44.330;23.802;2023-07-13T10:31:22;99998.19;;;34.11;55.65
55675;BME280;41562;44.330;23.802;2023-07-13T10:33:54;99995.22;;;34.18;55.11
55675;BME280;41562;44.330;23.802;2023-07-13T10:36:34;99993.44;;;34.40;58.03
55675;BME280;41562;44.330;23.802;2023-07-13T10:39:24;99999.59;;;34.48;56.36
55675;BME280;41562;44.330;23.802;2023-07-13T10:42:00;99995.28;;;34.59;53.11
55675;BME280;41562;44.330;23.802;2023-07-13T10:44:49;100000.53;;;34.57;52.78
55675;BME280;41562;44.330;23.802;2023-07-13T10:47:39;100000.38;;;34.48;52.77
55675;BME280;41562;44.330;23.802;2023-07-13T10:50:08;99995.00;;;34.41;54.33
55675;BME280;41562;44.330;23.802;2023-07-13T10:52:53;100004.56;;;34.40;53.71
55675;BME280;41562;44.330;23.802;2023-07-13T10:55:40;100008.50;;;34.55;54.25
55675;BME280;41562;44.330;23.802;2023-07-13T11:02:28;100004.31;;;34.63;50.43
55675;BME280;41562;44.330;23.802;2023-07-13T11:08:20;100007.19;;;34.89;48.99
55675;BME280;41562;44.330;23.802;2023-07-13T11:22:44;99999.94;;;34.91;46.73
55675;BME280;41562;44.330;23.802;2023-07-13T11:27:52;100005.47;;;34.79;48.72
55675;BME280;41562;44.330;23.802;2023-07-13T11:33:14;99990.84;;;34.62;47.26
55675;BME280;41562;44.330;23.802;2023-07-13T11:38:35;100000.38;;;34.77;48.27
55675;BME280;41562;44.330;23.802;2023-07-13T11:41:18;99995.00;;;34.70;47.27
55675;BME280;41562;44.330;23.802;2023-07-13T11:43:50;99995.97;;;34.63;46.41
55675;BME280;41562;44.330;23.802;2023-07-13T11:46:26;100003.09;;;34.64;46.95
55675;BME280;41562;44.330;23.802;2023-07-13T11:53:14;99981.81;;;34.87;45.85
55675;BME280;41562;44.330;23.802;2023-07-13T11:55:43;99977.91;;;34.84;45.97
55675;BME280;41562;44.330;23.802;2023-07-13T11:58:27;99978.03;;;34.81;44.92
55675;BME280;41562;44.330;23.802;2023-07-13T12:04:02;99978.25;;;34.86;45.10
55675;BME280;41562;44.330;23.802;2023-07-13T12:09:16;99965.47;;;34.76;44.73
55675;BME280;41562;44.330;23.802;2023-07-13T12:11:44;99956.75;;;34.61;44.91
55675;BME280;41562;44.330;23.802;2023-07-13T12:14:16;99953.97;;;34.61;46.03
55675;BME280;41562;44.330;23.802;2023-07-13T12:16:45;99942.66;;;34.68;44.09
55675;BME280;41562;44.330;23.802;2023-07-13T12:19:20;99941.09;;;34.67;44.98
55675;BME280;41562;44.330;23.802;2023-07-13T12:21:50;99935.34;;;34.75;44.44
55675;BME280;41562;44.330;23.802;2023-07-13T12:31:31;99928.91;;;34.78;42.83
55675;BME280;41562;44.330;23.802;2023-07-13T12:36:40;99917.91;;;34.87;42.16
55675;BME280;41562;44.330;23.802;2023-07-13T12:39:45;99908.69;;;34.90;40.41
55675;BME280;41562;44.330;23.802;2023-07-13T12:42:53;99909.56;;;34.87;41.07
55675;BME280;41562;44.330;23.802;2023-07-13T12:48:53;99914.84;;;34.68;42.33
55675;BME280;41562;44.330;23.802;2023-07-13T12:52:10;99909.50;;;34.61;42.42
55675;BME280;41562;44.330;23.802;2023-07-13T13:19:47;99881.44;;;34.72;43.10
55675;BME280;41562;44.330;23.802;2023-07-13T13:22:14;99875.19;;;34.68;42.82
55675;BME280;41562;44.330;23.802;2023-07-13T13:24:45;99877.44;;;34.73;40.97
55675;BME280;41562;44.330;23.802;2023-07-13T13:27:22;99883.97;;;34.66;41.36
55675;BME280;41562;44.330;23.802;2023-07-13T14:03:57;99855.50;;;34.37;39.63
55675;BME280;41562;44.330;23.802;2023-07-13T14:07:03;99853.16;;;34.36;40.26
55675;BME280;41562;44.330;23.802;2023-07-13T14:09:31;99848.94;;;34.31;41.90
55675;BME280;41562;44.330;23.802;2023-07-13T14:11:58;99845.81;;;34.42;39.54
55675;BME280;41562;44.330;23.802;2023-07-13T14:14:27;99852.16;;;34.55;39.90
55675;BME280;41562;44.330;23.802;2023-07-13T14:16:55;99847.19;;;34.62;39.25
55675;BME280;41562;44.330;23.802;2023-07-13T14:19:26;99847.94;;;34.50;40.23
55675;BME280;41562;44.330;23.802;2023-07-13T14:21:55;99858.72;;;34.48;41.58
55675;BME280;41562;44.330;23.802;2023-07-13T14:24:24;99855.38;;;34.41;40.17
55675;BME280;41562;44.330;23.802;2023-07-13T14:26:55;99855.69;;;34.30;41.64
55675;BME280;41562;44.330;23.802;2023-07-13T14:29:22;99864.03;;;34.30;41.50
55675;BME280;41562;44.330;23.802;2023-07-13T14:31:51;99853.59;;;34.34;41.58
55675;BME280;41562;44.330;23.802;2023-07-13T14:34:19;99851.16;;;34.36;41.17
55675;BME280;41562;44.330;23.802;2023-07-13T14:37:11;99841.25;;;34.35;40.60
55675;BME280;41562;44.330;23.802;2023-07-13T14:39:47;99844.59;;;34.30;40.60
55675;BME280;41562;44.330;23.802;2023-07-13T14:42:22;99841.16;;;34.26;41.08
55675;BME280;41562;44.330;23.802;2023-07-13T14:44:57;99832.66;;;34.17;41.16
55675;BME280;41562;44.330;23.802;2023-07-13T14:47:29;99837.78;;;34.18;41.81
55675;BME280;41562;44.330;23.802;2023-07-13T14:50:01;99826.38;;;34.29;41.64
55675;BME280;41562;44.330;23.802;2023-07-13T14:52:36;99837.97;;;34.11;41.84
55675;BME280;41562;44.330;23.802;2023-07-13T14:55:15;99839.31;;;34.07;42.23
55675;BME280;41562;44.330;23.802;2023-07-13T14:57:43;99832.50;;;33.95;42.49
55675;BME280;41562;44.330;23.802;2023-07-13T15:00:20;99827.19;;;34.01;43.03
55675;BME280;41562;44.330;23.802;2023-07-13T15:02:55;99816.28;;;33.94;42.46
55675;BME280;41562;44.330;23.802;2023-07-13T15:05:25;99823.16;;;33.89;44.00
55675;BME280;41562;44.330;23.802;2023-07-13T15:07:53;99816.28;;;33.94;43.87
55675;BME280;41562;44.330;23.802;2023-07-13T15:12:50;99818.94;;;33.97;43.72
55675;BME280;41562;44.330;23.802;2023-07-13T15:15:18;99815.28;;;33.87;43.47
55675;BME280;41562;44.330;23.802;2023-07-13T15:17:46;99823.88;;;33.77;45.94
55675;BME280;41562;44.330;23.802;2023-07-13T15:22:51;99814.28;;;33.65;44.79
55675;BME280;41562;44.330;23.802;2023-07-13T15:25:23;99811.19;;;33.63;44.68
55675;BME280;41562;44.330;23.802;2023-07-13T15:27:51;99810.72;;;33.65;44.65
55675;BME280;41562;44.330;23.802;2023-07-13T15:30:19;99821.25;;;33.57;45.98
55675;BME280;41562;44.330;23.802;2023-07-13T15:32:46;99808.59;;;33.56;45.76
55675;BME280;41562;44.330;23.802;2023-07-13T15:35:15;99799.91;;;33.54;46.40
55675;BME280;41562;44.330;23.802;2023-07-13T15:37:43;99798.53;;;33.62;45.93
55675;BME280;41562;44.330;23.802;2023-07-13T15:40:11;99801.72;;;33.61;46.07
55675;BME280;41562;44.330;23.802;2023-07-13T15:42:40;99794.19;;;33.61;46.77
55675;BME280;41562;44.330;23.802;2023-07-13T15:45:31;99792.63;;;33.60;45.65
55675;BME280;41562;44.330;23.802;2023-07-13T15:48:00;99792.38;;;33.55;46.32
55675;BME280;41562;44.330;23.802;2023-07-13T15:50:33;99797.34;;;33.47;46.44
55675;BME280;41562;44.330;23.802;2023-07-13T15:53:17;99789.91;;;33.44;47.20
55675;BME280;41562;44.330;23.802;2023-07-13T15:56:01;99792.69;;;33.44;46.45
55675;BME280;41562;44.330;23.802;2023-07-13T16:01:13;99801.00;;;33.44;45.35
55675;BME280;41562;44.330;23.802;2023-07-13T16:03:48;99797.44;;;33.43;47.09
55675;BME280;41562;44.330;23.802;2023-07-13T16:09:01;99806.91;;;33.30;48.21
55675;BME280;41562;44.330;23.802;2023-07-13T16:11:32;99813.06;;;33.37;47.85
55675;BME280;41562;44.330;23.802;2023-07-13T16:14:04;99805.00;;;33.27;47.65
55675;BME280;41562;44.330;23.802;2023-07-13T16:19:36;99806.91;;;33.30;48.04
55675;BME280;41562;44.330;23.802;2023-07-13T16:22:04;99817.31;;;33.26;47.47
55675;BME280;41562;44.330;23.802;2023-07-13T16:24:33;99817.66;;;33.28;47.48
55675;BME280;41562;44.330;23.802;2023-07-13T16:27:04;99819.06;;;33.20;48.20
55675;BME280;41562;44.330;23.802;2023-07-13T16:29:32;99812.97;;;33.08;48.62
55675;BME280;41562;44.330;23.802;2023-07-13T16:32:05;99814.63;;;33.06;49.21
55675;BME280;41562;44.330;23.802;2023-07-13T16:34:39;99815.47;;;33.03;49.17
55675;BME280;41562;44.330;23.802;2023-07-13T16:39:38;99823.53;;;32.97;49.35
55675;BME280;41562;44.330;23.802;2023-07-13T16:42:10;99815.75;;;32.92;49.46
55675;BME280;41562;44.330;23.802;2023-07-13T16:44:39;99823.03;;;32.86;50.50
55675;BME280;41562;44.330;23.802;2023-07-13T16:47:14;99826.47;;;32.74;51.10
55675;BME280;41562;44.330;23.802;2023-07-13T16:49:42;99817.81;;;32.72;51.01
55675;BME280;41562;44.330;23.802;2023-07-13T16:52:14;99822.50;;;32.75;50.94
55675;BME280;41562;44.330;23.802;2023-07-13T16:54:47;99835.31;;;32.69;50.99
55675;BME280;41562;44.330;23.802;2023-07-13T16:57:21;99836.22;;;32.62;50.81
55675;BME280;41562;44.330;23.802;2023-07-13T16:59:52;99835.06;;;32.60;51.01
55675;BME280;41562;44.330;23.802;2023-07-13T17:02:38;99828.56;;;32.50;52.34
55675;BME280;41562;44.330;23.802;2023-07-13T17:05:10;99828.66;;;32.47;53.86
55675;BME280;41562;44.330;23.802;2023-07-13T17:07:48;99832.63;;;32.46;55.25
55675;BME280;41562;44.330;23.802;2023-07-13T17:10:22;99837.38;;;32.45;56.56